Time;durP1;ratioP1;P1;durP2;ratioP2;P2;SDS_P1;SDS_P2;PMS_P1;PMS_P2;Temp;Humidity;BMP_temperature;BMP_pressure;BME280_temperature;BME280_humidity;BME280_pressure;Samples;Min_cycle;Max_cycle;Signal;HPM_P1;HPM_P2
2022/08/05 00:01:20;;;;;;;10.88;7.40;;;;;;;;;;5005550;28;20034;-71
2022/08/05 00:03:50;;;;;;;7.80;7.07;;;;;;;;;;5008255;28;20530;-70
2022/08/05 00:06:17;;;;;;;13.68;7.60;;;;;;;;;;5014022;28;20033;-70
2022/08/05 00:08:43;;;;;;;8.07;7.25;;;;;;;;;;5017162;28;20500;-70
2022/08/05 00:11:11;;;;;;;7.63;6.90;;;;;;;;;;5009968;28;20033;-70
2022/08/05 00:13:38;;;;;;;7.93;7.13;;;;;;;;;;5016553;28;20405;-70
2022/08/05 00:16:05;;;;;;;8.32;6.72;;;;;;;;;;5012354;28;20026;-70
2022/08/05 00:18:31;;;;;;;7.65;6.95;;;;;;;;;;5011779;28;20026;-70
2022/08/05 00:20:58;;;;;;;7.15;6.55;;;;;;;;;;5014811;28;20091;-70
2022/08/05 00:23:24;;;;;;;10.43;7.25;;;;;;;;;;5016915;28;20097;-70
2022/08/05 00:25:50;;;;;;;7.13;6.43;;;;;;;;;;5013484;28;20064;-70
2022/08/05 00:28:17;;;;;;;7.18;6.57;;;;;;;;;;5014902;28;20462;-70
2022/08/05 00:30:43;;;;;;;6.57;6.07;;;;;;;;;;5016343;28;20152;-70
2022/08/05 00:33:09;;;;;;;7.25;6.65;;;;;;;;;;5015785;28;20366;-70
2022/08/05 00:35:35;;;;;;;6.43;5.93;;;;;;;;;;5016060;28;20037;-70
2022/08/05 00:38:02;;;;;;;7.32;6.43;;;;;;;;;;5011776;28;20053;-70
2022/08/05 00:40:28;;;;;;;7.05;6.10;;;;;;;;;;5025664;28;20034;-70
2022/08/05 00:42:54;;;;;;;6.78;6.15;;;;;;;;;;5014035;28;20014;-70
2022/08/05 00:45:20;;;;;;;6.75;6.15;;;;;;;;;;5005310;28;20044;-70
2022/08/05 00:47:47;;;;;;;6.93;5.82;;;;;;;;;;5009313;28;20068;-70
2022/08/05 00:50:13;;;;;;;7.05;6.45;;;;;;;;;;5009535;28;20026;-70
2022/08/05 00:52:39;;;;;;;7.13;6.57;;;;;;;;;;5008378;28;20032;-70
2022/08/05 00:55:05;;;;;;;7.32;5.53;;;;;;;;;;5012157;28;20025;-70
2022/08/05 00:57:31;;;;;;;6.20;5.70;;;;;;;;;;5011025;28;20096;-70
2022/08/05 00:59:57;;;;;;;6.38;5.80;;;;;;;;;;5011762;28;20092;-70
2022/08/05 01:02:24;;;;;;;6.55;5.95;;;;;;;;;;5014495;28;20028;-70
2022/08/05 01:04:50;;;;;;;6.50;5.90;;;;;;;;;;5008664;28;20386;-70
2022/08/05 01:07:16;;;;;;;5.72;5.32;;;;;;;;;;5013344;28;20536;-70
2022/08/05 01:09:42;;;;;;;7.20;5.45;;;;;;;;;;5012065;28;20076;-71
2022/08/05 01:12:11;;;;;;;5.82;5.43;;;;;;;;;;5008576;28;20600;-71
2022/08/05 01:14:41;;;;;;;6.22;5.63;;;;;;;;;;5013844;28;20056;-70
2022/08/05 01:17:13;;;;;;;5.70;5.20;;;;;;;;;;5012799;28;20014;-70
2022/08/05 01:19:49;;;;;;;5.95;5.47;;;;;;;;;;5014183;28;20037;-70
2022/08/05 01:22:34;;;;;;;5.50;5.10;;;;;;;;;;5017065;28;20022;-70
2022/08/05 01:25:14;;;;;;;5.25;4.85;;;;;;;;;;5014526;28;20656;-70
2022/08/05 01:27:40;;;;;;;5.50;5.00;;;;;;;;;;5007110;28;20310;-70
2022/08/05 01:30:07;;;;;;;5.57;5.07;;;;;;;;;;5009575;28;20028;-70
2022/08/05 01:32:34;;;;;;;5.25;4.85;;;;;;;;;;5013383;28;20026;-70
2022/08/05 01:35:01;;;;;;;6.00;5.13;;;;;;;;;;5013646;28;20025;-70
2022/08/05 01:37:43;;;;;;;5.50;5.10;;;;;;;;;;5014764;28;20025;-70
2022/08/05 01:40:10;;;;;;;5.75;5.15;;;;;;;;;;5010870;28;20038;-71
2022/08/05 01:42:37;;;;;;;5.75;4.90;;;;;;;;;;5019710;28;20025;-70
2022/08/05 01:45:04;;;;;;;5.88;5.38;;;;;;;;;;5012967;28;20149;-69
2022/08/05 01:47:31;;;;;;;5.25;4.65;;;;;;;;;;5011782;28;20385;-70
2022/08/05 01:49:58;;;;;;;5.72;5.30;;;;;;;;;;5004676;28;20116;-69
2022/08/05 01:52:25;;;;;;;5.45;4.95;;;;;;;;;;5011265;28;20403;-70
2022/08/05 01:54:57;;;;;;;5.68;5.28;;;;;;;;;;4999139;28;20030;-70
2022/08/05 01:57:25;;;;;;;6.65;4.55;;;;;;;;;;5001650;28;20029;-70
2022/08/05 01:59:54;;;;;;;5.63;5.07;;;;;;;;;;5006316;28;20399;-70
2022/08/05 02:02:21;;;;;;;5.32;4.85;;;;;;;;;;5003556;28;20026;-70
2022/08/05 02:04:48;;;;;;;5.20;4.80;;;;;;;;;;5003938;28;20022;-71
2022/08/05 02:07:14;;;;;;;4.97;4.57;;;;;;;;;;5003591;28;20103;-70
2022/08/05 02:09:40;;;;;;;5.03;4.55;;;;;;;;;;5003692;28;20505;-71
2022/08/05 02:12:30;;;;;;;5.55;4.95;;;;;;;;;;5004355;28;20032;-70
2022/08/05 02:15:19;;;;;;;5.63;5.10;;;;;;;;;;5002375;28;20477;-71
2022/08/05 02:17:49;;;;;;;5.15;4.75;;;;;;;;;;5004068;28;20470;-71
2022/08/05 02:20:18;;;;;;;5.40;4.90;;;;;;;;;;4999807;28;20033;-70
2022/08/05 02:22:46;;;;;;;4.93;4.45;;;;;;;;;;5006188;28;20403;-70
2022/08/05 02:25:16;;;;;;;5.18;4.68;;;;;;;;;;5009452;28;20112;-70
2022/08/05 02:27:47;;;;;;;5.22;4.72;;;;;;;;;;5006909;28;20053;-70
2022/08/05 02:30:14;;;;;;;5.32;4.90;;;;;;;;;;5006612;28;20018;-71
2022/08/05 02:32:41;;;;;;;5.10;4.70;;;;;;;;;;5010062;28;20053;-70
2022/08/05 02:35:12;;;;;;;5.18;4.68;;;;;;;;;;5003362;28;20477;-70
2022/08/05 02:37:38;;;;;;;5.75;5.25;;;;;;;;;;4998672;28;20029;-70
2022/08/05 02:40:04;;;;;;;5.45;4.93;;;;;;;;;;4996221;28;20052;-70
2022/08/05 02:42:32;;;;;;;5.55;4.93;;;;;;;;;;5001515;28;20049;-70
2022/08/05 02:44:59;;;;;;;5.28;4.78;;;;;;;;;;5002779;28;20053;-70
2022/08/05 02:47:27;;;;;;;5.50;5.00;;;;;;;;;;5005041;28;20824;-71
2022/08/05 02:49:53;;;;;;;5.28;4.82;;;;;;;;;;5003328;28;20463;-72
2022/08/05 02:52:20;;;;;;;6.55;5.78;;;;;;;;;;5003540;28;20038;-70
2022/08/05 02:54:46;;;;;;;6.60;5.25;;;;;;;;;;4999373;28;20088;-70
2022/08/05 02:57:16;;;;;;;5.50;5.05;;;;;;;;;;5001593;28;20018;-70
2022/08/05 02:59:43;;;;;;;5.15;4.75;;;;;;;;;;4998317;28;20040;-69
2022/08/05 03:02:10;;;;;;;5.43;4.93;;;;;;;;;;5004210;28;20173;-71
2022/08/05 03:04:37;;;;;;;5.15;4.70;;;;;;;;;;4993592;28;20033;-69
2022/08/05 03:07:03;;;;;;;4.82;4.43;;;;;;;;;;4997631;28;20101;-70
2022/08/05 03:09:30;;;;;;;5.20;4.80;;;;;;;;;;5004681;28;20788;-70
2022/08/05 03:11:56;;;;;;;5.70;5.15;;;;;;;;;;5004196;28;20033;-71
2022/08/05 03:14:22;;;;;;;5.25;4.85;;;;;;;;;;5005651;28;20441;-69
2022/08/05 03:16:48;;;;;;;5.97;5.28;;;;;;;;;;5000576;28;20343;-70
2022/08/05 03:19:15;;;;;;;5.95;5.53;;;;;;;;;;5006821;28;20251;-69
2022/08/05 03:21:41;;;;;;;5.47;5.07;;;;;;;;;;5007801;28;20041;-70
2022/08/05 03:24:08;;;;;;;6.68;5.18;;;;;;;;;;5006223;28;20023;-70
2022/08/05 03:26:34;;;;;;;4.93;4.53;;;;;;;;;;5006776;28;20305;-70
2022/08/05 03:29:01;;;;;;;5.20;4.70;;;;;;;;;;5002745;28;20782;-70
2022/08/05 03:31:27;;;;;;;5.10;4.70;;;;;;;;;;5004315;28;20029;-69
2022/08/05 03:33:54;;;;;;;5.07;4.68;;;;;;;;;;5004145;28;20033;-70
2022/08/05 03:36:20;;;;;;;6.32;4.72;;;;;;;;;;5000743;28;20033;-70
2022/08/05 03:38:46;;;;;;;5.15;4.72;;;;;;;;;;5003940;28;20395;-70
2022/08/05 03:41:13;;;;;;;5.00;4.60;;;;;;;;;;4999040;28;20123;-70
2022/08/05 03:43:39;;;;;;;5.00;4.50;;;;;;;;;;4999034;28;20026;-69
2022/08/05 03:46:05;;;;;;;5.13;4.68;;;;;;;;;;5006818;28;20114;-70
2022/08/05 03:48:31;;;;;;;4.63;4.22;;;;;;;;;;5003924;28;20533;-69
2022/08/05 03:51:27;;;;;;;5.75;4.38;;;;;;;;;;5003304;28;20405;-70
2022/08/05 03:54:08;;;;;;;5.68;4.80;;;;;;;;;;4985767;28;20149;-70
2022/08/05 03:56:34;;;;;;;;;;;;;;;;;;5002600;28;20742;-69
2022/08/05 03:59:02;;;;;;;7.57;5.13;;;;;;;;;;5002102;28;20387;-69
2022/08/05 04:01:29;;;;;;;5.28;4.80;;;;;;;;;;5005379;28;20037;-69
2022/08/05 04:03:56;;;;;;;6.20;5.22;;;;;;;;;;5004439;28;20382;-70
2022/08/05 04:06:22;;;;;;;7.57;6.78;;;;;;;;;;5004584;28;20466;-70
2022/08/05 04:08:49;;;;;;;7.10;6.32;;;;;;;;;;4998328;28;20120;-70
2022/08/05 04:11:16;;;;;;;8.20;6.78;;;;;;;;;;5004679;28;20036;-70
2022/08/05 04:13:42;;;;;;;7.47;6.80;;;;;;;;;;5008360;28;20473;-69
2022/08/05 04:16:08;;;;;;;7.00;6.43;;;;;;;;;;5000468;28;20032;-70
2022/08/05 04:18:35;;;;;;;8.15;7.05;;;;;;;;;;5007171;28;20057;-70
2022/08/05 04:21:02;;;;;;;8.20;7.40;;;;;;;;;;5006829;28;20084;-69
2022/08/05 04:23:29;;;;;;;7.82;6.72;;;;;;;;;;5004645;28;20024;-70
2022/08/05 04:25:55;;;;;;;7.68;6.97;;;;;;;;;;5000751;28;20252;-70
2022/08/05 04:28:21;;;;;;;8.30;7.50;;;;;;;;;;5004216;28;20141;-70
2022/08/05 04:30:48;;;;;;;6.57;5.97;;;;;;;;;;5007621;28;20569;-70
2022/08/05 04:33:15;;;;;;;8.07;6.35;;;;;;;;;;5009665;28;20156;-70
2022/08/05 04:35:41;;;;;;;7.05;6.35;;;;;;;;;;5008796;28;20053;-69
2022/08/05 04:38:08;;;;;;;9.05;6.25;;;;;;;;;;5002877;28;20026;-70
2022/08/05 04:40:35;;;;;;;6.50;5.90;;;;;;;;;;5007171;28;20033;-70
2022/08/05 04:43:01;;;;;;;6.10;5.50;;;;;;;;;;5000629;28;20060;-69
2022/08/05 04:45:27;;;;;;;6.80;6.20;;;;;;;;;;5007829;28;20418;-70
2022/08/05 04:47:53;;;;;;;7.60;6.90;;;;;;;;;;5002444;28;20478;-70
2022/08/05 04:50:19;;;;;;;8.60;7.18;;;;;;;;;;5007073;28;20302;-69
2022/08/05 04:52:46;;;;;;;8.07;6.68;;;;;;;;;;5000317;28;20024;-70
2022/08/05 04:55:12;;;;;;;8.35;7.55;;;;;;;;;;4998533;28;20286;-69
2022/08/05 04:57:38;;;;;;;7.65;6.95;;;;;;;;;;5005446;28;20018;-70
2022/08/05 05:00:05;;;;;;;7.90;7.18;;;;;;;;;;5001651;28;20408;-70
2022/08/05 05:02:31;;;;;;;10.15;7.03;;;;;;;;;;5002572;28;20025;-69
2022/08/05 05:04:57;;;;;;;7.15;6.55;;;;;;;;;;5001886;28;20263;-70
2022/08/05 05:07:23;;;;;;;7.03;6.43;;;;;;;;;;5001514;28;20026;-70
2022/08/05 05:09:50;;;;;;;8.27;6.65;;;;;;;;;;4997193;28;20044;-70
2022/08/05 05:12:17;;;;;;;7.18;6.47;;;;;;;;;;4997926;28;20028;-69
2022/08/05 05:14:43;;;;;;;7.45;6.82;;;;;;;;;;5004657;28;20180;-70
2022/08/05 05:17:09;;;;;;;11.65;7.65;;;;;;;;;;5004001;28;20707;-69
2022/08/05 05:19:35;;;;;;;7.97;7.05;;;;;;;;;;5002824;28;20475;-70
2022/08/05 05:22:01;;;;;;;7.80;6.57;;;;;;;;;;5004079;28;20041;-70
2022/08/05 05:24:27;;;;;;;7.03;6.32;;;;;;;;;;5001914;28;20025;-70
2022/08/05 05:26:54;;;;;;;9.40;7.93;;;;;;;;;;5004874;28;20346;-70
2022/08/05 05:29:20;;;;;;;9.80;7.07;;;;;;;;;;5007529;28;20224;-70
2022/08/05 05:31:46;;;;;;;15.05;7.47;;;;;;;;;;5005309;28;20109;-71
2022/08/05 05:34:12;;;;;;;10.40;7.28;;;;;;;;;;5008396;28;20018;-72
2022/08/05 05:36:38;;;;;;;10.77;7.88;;;;;;;;;;5001668;28;20108;-71
2022/08/05 05:39:04;;;;;;;10.80;7.95;;;;;;;;;;5007744;28;20225;-70
2022/08/05 05:41:31;;;;;;;12.57;8.27;;;;;;;;;;5008810;28;20125;-71
2022/08/05 05:43:58;;;;;;;24.23;8.10;;;;;;;;;;5005397;28;20034;-70
2022/08/05 05:46:24;;;;;;;9.35;7.85;;;;;;;;;;5007549;28;20116;-70
2022/08/05 05:48:50;;;;;;;10.18;7.80;;;;;;;;;;5006530;28;20506;-70
2022/08/05 05:51:21;;;;;;;8.95;7.93;;;;;;;;;;5010350;28;20113;-70
2022/08/05 05:53:47;;;;;;;10.57;7.50;;;;;;;;;;5008296;28;20025;-71
2022/08/05 05:56:13;;;;;;;8.88;8.00;;;;;;;;;;5007440;28;20026;-71
2022/08/05 05:58:39;;;;;;;8.98;8.27;;;;;;;;;;5008744;28;20036;-71
2022/08/05 06:01:05;;;;;;;10.05;7.93;;;;;;;;;;5009198;28;20064;-70
2022/08/05 06:03:32;;;;;;;10.60;8.10;;;;;;;;;;5011805;28;20067;-71
2022/08/05 06:05:58;;;;;;;13.45;8.75;;;;;;;;;;5001397;28;20036;-71
2022/08/05 06:08:24;;;;;;;10.13;8.30;;;;;;;;;;4993185;28;20028;-71
2022/08/05 06:10:50;;;;;;;8.00;7.20;;;;;;;;;;5002515;28;20820;-72
2022/08/05 06:13:16;;;;;;;11.25;7.88;;;;;;;;;;5008929;28;20111;-73
2022/08/05 06:15:42;;;;;;;8.00;7.20;;;;;;;;;;5005421;28;20469;-73
2022/08/05 06:18:08;;;;;;;9.40;7.03;;;;;;;;;;5002628;28;20022;-72
2022/08/05 06:20:35;;;;;;;12.95;7.57;;;;;;;;;;5008035;28;20041;-72
2022/08/05 06:23:01;;;;;;;10.35;7.18;;;;;;;;;;5002628;28;20029;-72
2022/08/05 06:25:27;;;;;;;8.75;7.35;;;;;;;;;;5006195;28;20022;-72
2022/08/05 06:27:53;;;;;;;7.78;7.00;;;;;;;;;;4999720;28;20130;-72
2022/08/05 06:30:19;;;;;;;8.43;7.45;;;;;;;;;;5001767;28;20117;-72
2022/08/05 06:32:45;;;;;;;8.40;7.50;;;;;;;;;;5006168;28;20169;-72
2022/08/05 06:35:12;;;;;;;12.02;8.10;;;;;;;;;;5006906;28;20022;-72
2022/08/05 06:37:38;;;;;;;8.65;7.65;;;;;;;;;;5005168;28;20466;-72
2022/08/05 06:40:04;;;;;;;9.95;8.95;;;;;;;;;;5005832;28;20053;-72
2022/08/05 06:42:30;;;;;;;12.52;9.25;;;;;;;;;;5010315;28;20026;-72
2022/08/05 06:44:57;;;;;;;12.50;8.50;;;;;;;;;;5006838;28;20410;-72
2022/08/05 06:47:23;;;;;;;10.10;7.72;;;;;;;;;;5009623;28;20397;-72
2022/08/05 06:49:49;;;;;;;10.27;7.95;;;;;;;;;;5007994;28;20509;-72
2022/08/05 06:52:15;;;;;;;8.75;7.75;;;;;;;;;;5014705;28;20482;-72
2022/08/05 06:54:41;;;;;;;8.13;7.38;;;;;;;;;;5003928;28;20474;-72
2022/08/05 06:57:07;;;;;;;8.65;7.75;;;;;;;;;;5010723;28;20036;-72
2022/08/05 06:59:33;;;;;;;9.68;7.80;;;;;;;;;;5006181;28;20026;-72
2022/08/05 07:01:59;;;;;;;8.43;7.50;;;;;;;;;;5009630;28;20107;-72
2022/08/05 07:04:26;;;;;;;8.00;7.30;;;;;;;;;;5007602;28;20110;-72
2022/08/05 07:06:52;;;;;;;8.30;7.55;;;;;;;;;;5005104;28;20036;-72
2022/08/05 07:09:18;;;;;;;8.32;7.63;;;;;;;;;;5004841;28;20034;-72
2022/08/05 07:11:44;;;;;;;8.40;7.60;;;;;;;;;;5007668;28;20025;-72
2022/08/05 07:17:01;;;;;;;6.80;6.25;;;;;;;;;;5005993;28;20517;-71
2022/08/05 07:19:28;;;;;;;7.68;6.78;;;;;;;;;;5003478;28;20028;-71
2022/08/05 07:21:54;;;;;;;7.50;6.80;;;;;;;;;;5006079;28;20517;-75
2022/08/05 07:24:21;;;;;;;7.97;7.07;;;;;;;;;;5002637;28;20037;-71
2022/08/05 07:26:47;;;;;;;8.10;7.30;;;;;;;;;;4998328;28;20428;-72
2022/08/05 07:29:14;;;;;;;7.90;7.13;;;;;;;;;;4995509;28;20045;-73
2022/08/05 07:31:40;;;;;;;8.13;7.22;;;;;;;;;;5007392;28;20121;-71
2022/08/05 07:34:07;;;;;;;7.68;7.07;;;;;;;;;;5006236;28;20066;-71
2022/08/05 07:36:33;;;;;;;9.43;7.20;;;;;;;;;;5003912;28;20025;-72
2022/08/05 07:39:03;;;;;;;8.15;6.95;;;;;;;;;;5003723;28;20054;-72
2022/08/05 07:41:30;;;;;;;7.05;6.53;;;;;;;;;;5004969;28;20599;-72
2022/08/05 07:43:57;;;;;;;8.57;7.60;;;;;;;;;;5007769;28;20025;-72
2022/08/05 07:46:23;;;;;;;7.50;6.90;;;;;;;;;;5010235;28;20033;-72
2022/08/05 07:48:50;;;;;;;7.32;6.63;;;;;;;;;;5008207;28;20033;-72
2022/08/05 07:51:16;;;;;;;8.13;7.30;;;;;;;;;;5004432;28;20061;-72
2022/08/05 07:53:43;;;;;;;7.65;6.85;;;;;;;;;;5011403;28;20025;-73
2022/08/05 07:56:09;;;;;;;7.65;7.00;;;;;;;;;;5008528;28;20041;-72
2022/08/05 07:58:35;;;;;;;7.03;6.32;;;;;;;;;;5011608;28;20026;-72
2022/08/05 08:01:01;;;;;;;7.00;6.40;;;;;;;;;;5009916;28;20116;-74
2022/08/05 08:03:27;;;;;;;7.13;6.35;;;;;;;;;;5016118;28;20067;-76
2022/08/05 08:05:53;;;;;;;8.13;7.18;;;;;;;;;;5007209;28;20100;-72
2022/08/05 08:08:20;;;;;;;6.57;5.97;;;;;;;;;;5013145;28;20029;-73
2022/08/05 08:10:46;;;;;;;6.95;6.45;;;;;;;;;;5005458;28;20048;-73
2022/08/05 08:13:12;;;;;;;8.57;7.70;;;;;;;;;;5008758;28;20108;-72
2022/08/05 08:15:38;;;;;;;7.20;6.60;;;;;;;;;;5006077;28;20030;-72
2022/08/05 08:18:05;;;;;;;7.32;6.65;;;;;;;;;;4995170;28;20037;-72
2022/08/05 08:20:31;;;;;;;10.63;7.43;;;;;;;;;;5006895;28;20092;-72
2022/08/05 08:22:58;;;;;;;7.60;6.75;;;;;;;;;;4998082;28;20034;-72
2022/08/05 08:25:25;;;;;;;8.27;6.95;;;;;;;;;;5005139;28;20116;-73
2022/08/05 08:27:51;;;;;;;7.15;6.45;;;;;;;;;;5002436;28;20049;-73
2022/08/05 08:30:17;;;;;;;7.95;7.22;;;;;;;;;;5003258;28;20643;-72
2022/08/05 08:32:44;;;;;;;8.80;7.70;;;;;;;;;;5009384;28;20017;-72
2022/08/05 08:35:10;;;;;;;7.43;6.80;;;;;;;;;;5007148;28;20030;-72
2022/08/05 08:37:36;;;;;;;7.28;6.20;;;;;;;;;;5007837;28;20109;-71
2022/08/05 08:40:02;;;;;;;6.65;6.05;;;;;;;;;;5007179;28;20470;-72
2022/08/05 08:42:29;;;;;;;7.40;6.20;;;;;;;;;;5004858;28;20096;-72
2022/08/05 08:44:56;;;;;;;7.10;6.45;;;;;;;;;;5005426;28;20406;-72
2022/08/05 08:47:24;;;;;;;6.47;5.97;;;;;;;;;;5010011;28;20056;-72
2022/08/05 08:49:52;;;;;;;8.27;6.50;;;;;;;;;;5010206;28;20058;-72
2022/08/05 08:52:23;;;;;;;6.60;6.00;;;;;;;;;;5008759;28;20109;-73
2022/08/05 08:54:51;;;;;;;5.95;5.05;;;;;;;;;;5007821;28;20092;-72
2022/08/05 08:57:18;;;;;;;5.00;4.60;;;;;;;;;;5010598;28;20413;-72
2022/08/05 08:59:44;;;;;;;5.22;4.78;;;;;;;;;;5009986;28;20068;-72
2022/08/05 09:02:10;;;;;;;4.97;4.50;;;;;;;;;;5012710;28;20040;-72
2022/08/05 09:04:37;;;;;;;4.78;4.38;;;;;;;;;;5008127;28;20030;-72
2022/08/05 09:07:09;;;;;;;4.70;4.30;;;;;;;;;;5015478;28;20497;-72
2022/08/05 09:09:36;;;;;;;4.22;3.92;;;;;;;;;;5008152;28;20030;-71
2022/08/05 09:12:04;;;;;;;3.78;3.47;;;;;;;;;;5013082;28;20048;-72
2022/08/05 09:14:31;;;;;;;3.90;3.60;;;;;;;;;;5005898;28;20025;-72
2022/08/05 09:16:58;;;;;;;5.03;4.10;;;;;;;;;;5009270;28;20259;-71
2022/08/05 09:19:25;;;;;;;4.00;3.70;;;;;;;;;;4999730;28;20501;-72
2022/08/05 09:21:51;;;;;;;3.22;2.92;;;;;;;;;;5006244;28;20033;-72
2022/08/05 09:24:17;;;;;;;4.93;3.28;;;;;;;;;;5000916;28;20422;-72
2022/08/05 09:26:47;;;;;;;2.70;2.40;;;;;;;;;;5006252;28;20026;-73
2022/08/05 09:29:13;;;;;;;4.05;3.25;;;;;;;;;;5002436;28;20033;-72
2022/08/05 09:31:42;;;;;;;3.25;2.95;;;;;;;;;;5005497;28;20105;-72
2022/08/05 09:34:09;;;;;;;3.45;2.90;;;;;;;;;;5008680;28;20406;-72
2022/08/05 09:36:48;;;;;;;4.38;3.70;;;;;;;;;;5004046;28;20026;-72
2022/08/05 09:39:16;;;;;;;4.30;3.90;;;;;;;;;;5002562;28;20030;-72
2022/08/05 09:42:03;;;;;;;5.18;4.13;;;;;;;;;;5007496;28;20041;-72
2022/08/05 09:44:36;;;;;;;3.58;3.28;;;;;;;;;;5005492;28;20099;-72
2022/08/05 09:47:09;;;;;;;3.63;3.30;;;;;;;;;;5005763;28;20927;-72
2022/08/05 09:49:39;;;;;;;3.72;2.95;;;;;;;;;;5007981;28;20745;-72
2022/08/05 09:52:26;;;;;;;3.25;2.95;;;;;;;;;;5003923;28;20021;-72
2022/08/05 09:55:08;;;;;;;3.40;3.10;;;;;;;;;;5002672;28;20030;-72
2022/08/05 09:57:40;;;;;;;3.80;3.50;;;;;;;;;;5003455;28;20014;-71
2022/08/05 10:00:13;;;;;;;4.13;3.80;;;;;;;;;;5003848;28;20040;-72
2022/08/05 10:02:41;;;;;;;3.70;3.25;;;;;;;;;;5006543;28;20036;-72
2022/08/05 10:05:10;;;;;;;3.92;3.17;;;;;;;;;;5004719;28;20100;-72
2022/08/05 10:07:43;;;;;;;3.53;3.22;;;;;;;;;;5000222;28;20021;-71
2022/08/05 10:10:09;;;;;;;4.47;3.67;;;;;;;;;;5004464;28;20030;-72
2022/08/05 10:12:52;;;;;;;3.60;3.30;;;;;;;;;;5010287;28;20105;-72
2022/08/05 10:15:20;;;;;;;3.47;3.17;;;;;;;;;;5003302;28;20021;-74
2022/08/05 10:18:04;;;;;;;4.70;3.15;;;;;;;;;;5008731;28;20026;-72
2022/08/05 10:20:34;;;;;;;3.60;2.83;;;;;;;;;;5011157;28;20030;-72
2022/08/05 10:23:01;;;;;;;6.50;3.47;;;;;;;;;;5005150;28;20048;-71
2022/08/05 10:25:27;;;;;;;5.35;3.63;;;;;;;;;;5001209;28;20038;-73
2022/08/05 10:27:54;;;;;;;3.50;3.20;;;;;;;;;;4998033;28;20045;-72
2022/08/05 10:30:20;;;;;;;5.03;3.30;;;;;;;;;;5002572;28;20064;-72
2022/08/05 10:32:47;;;;;;;4.03;3.38;;;;;;;;;;5002446;28;20485;-73
2022/08/05 10:35:13;;;;;;;3.22;2.92;;;;;;;;;;5000478;28;20030;-73
2022/08/05 10:37:40;;;;;;;3.60;3.00;;;;;;;;;;4998555;28;20030;-72
2022/08/05 10:40:09;;;;;;;4.18;3.35;;;;;;;;;;5005459;28;20043;-73
2022/08/05 10:42:37;;;;;;;4.90;3.20;;;;;;;;;;4999698;28;20479;-72
2022/08/05 10:45:06;;;;;;;3.28;2.72;;;;;;;;;;5008505;28;20813;-73
2022/08/05 10:47:35;;;;;;;3.45;3.15;;;;;;;;;;5005262;28;20025;-72
2022/08/05 10:50:06;;;;;;;3.20;2.90;;;;;;;;;;5002634;28;20176;-73
2022/08/05 10:52:58;;;;;;;3.33;3.07;;;;;;;;;;5004784;28;20022;-74
2022/08/05 10:55:25;;;;;;;4.22;3.53;;;;;;;;;;5001794;28;20281;-71
2022/08/05 10:58:19;;;;;;;22.45;6.97;;;;;;;;;;5009151;28;20068;-72
2022/08/05 11:00:46;;;;;;;4.72;3.80;;;;;;;;;;5004081;28;20061;-74
2022/08/05 11:03:13;;;;;;;4.45;3.10;;;;;;;;;;5010301;28;20088;-73
2022/08/05 11:05:39;;;;;;;3.25;2.95;;;;;;;;;;5010052;28;20025;-73
2022/08/05 11:08:09;;;;;;;4.78;3.10;;;;;;;;;;5010707;28;20018;-73
2022/08/05 11:10:37;;;;;;;4.60;3.63;;;;;;;;;;5012738;28;20030;-75
2022/08/05 11:13:04;;;;;;;3.80;3.35;;;;;;;;;;5009791;28;20014;-70
2022/08/05 11:15:33;;;;;;;3.10;2.90;;;;;;;;;;5012719;28;20037;-72
2022/08/05 11:18:07;;;;;;;3.50;3.20;;;;;;;;;;5015161;28;20018;-73
2022/08/05 11:20:33;;;;;;;3.67;3.38;;;;;;;;;;5015187;28;20120;-72
2022/08/05 11:22:59;;;;;;;4.88;3.10;;;;;;;;;;5011998;28;20511;-72
2022/08/05 11:25:29;;;;;;;6.63;3.63;;;;;;;;;;5010279;28;20580;-72
2022/08/05 11:27:56;;;;;;;4.78;3.35;;;;;;;;;;5005630;28;20053;-72
2022/08/05 11:30:22;;;;;;;3.88;3.50;;;;;;;;;;5007338;28;20607;-74
2022/08/05 11:32:48;;;;;;;3.53;2.50;;;;;;;;;;5004204;28;20478;-72
2022/08/05 11:35:33;;;;;;;2.80;2.60;;;;;;;;;;5006219;28;20033;-73
2022/08/05 11:37:59;;;;;;;3.58;3.28;;;;;;;;;;5002496;28;20034;-77
2022/08/05 11:40:44;;;;;;;3.88;3.47;;;;;;;;;;5003538;28;20034;-74
2022/08/05 11:43:19;;;;;;;4.18;3.10;;;;;;;;;;4997096;28;20034;-76
2022/08/05 11:45:46;;;;;;;3.17;2.88;;;;;;;;;;5005277;28;20110;-73
2022/08/05 11:48:13;;;;;;;2.40;2.20;;;;;;;;;;5006857;28;20028;-76
2022/08/05 11:50:40;;;;;;;3.22;2.92;;;;;;;;;;5005326;28;20025;-74
2022/08/05 11:53:06;;;;;;;3.55;3.25;;;;;;;;;;5006683;28;20549;-76
2022/08/05 11:55:33;;;;;;;3.15;2.70;;;;;;;;;;5005076;28;20025;-75
2022/08/05 11:57:59;;;;;;;2.92;2.60;;;;;;;;;;5003185;28;20037;-76
2022/08/05 12:00:29;;;;;;;3.50;2.97;;;;;;;;;;5006218;28;20373;-75
2022/08/05 12:02:55;;;;;;;3.70;3.40;;;;;;;;;;5008193;28;20119;-75
2022/08/05 12:05:25;;;;;;;4.28;3.47;;;;;;;;;;5009418;28;20021;-76
2022/08/05 12:07:52;;;;;;;6.60;4.18;;;;;;;;;;4992569;28;20596;-74
2022/08/05 12:10:20;;;;;;;3.33;3.03;;;;;;;;;;5006838;28;20026;-74
2022/08/05 12:12:46;;;;;;;4.78;3.92;;;;;;;;;;5005710;28;20173;-77
2022/08/05 12:15:20;;;;;;;4.75;3.70;;;;;;;;;;5003297;28;20371;-77
2022/08/05 12:17:46;;;;;;;3.83;3.42;;;;;;;;;;4999488;28;20034;-75
2022/08/05 12:20:12;;;;;;;3.88;3.17;;;;;;;;;;5001113;28;20038;-77
2022/08/05 12:22:38;;;;;;;3.90;3.60;;;;;;;;;;5008453;28;20017;-75
2022/08/05 12:25:05;;;;;;;3.80;3.45;;;;;;;;;;5008750;28;20571;-78
2022/08/05 12:27:31;;;;;;;3.75;3.40;;;;;;;;;;5010363;28;20831;-75
2022/08/05 12:29:59;;;;;;;5.10;4.22;;;;;;;;;;5009084;28;20101;-73
2022/08/05 12:32:25;;;;;;;3.25;3.00;;;;;;;;;;5007810;28;20032;-73
2022/08/05 12:34:51;;;;;;;4.70;3.50;;;;;;;;;;5004073;28;20025;-74
2022/08/05 12:37:18;;;;;;;4.32;3.90;;;;;;;;;;4999704;28;20060;-75
2022/08/05 12:39:44;;;;;;;3.70;3.40;;;;;;;;;;5001519;28;20112;-74
2022/08/05 12:42:12;;;;;;;3.30;3.10;;;;;;;;;;5007900;28;20068;-73
2022/08/05 12:44:38;;;;;;;3.45;3.15;;;;;;;;;;5002214;28;20511;-75
2022/08/05 12:47:05;;;;;;;3.13;2.90;;;;;;;;;;5008399;28;20022;-74
2022/08/05 12:49:41;;;;;;;4.15;2.78;;;;;;;;;;5002527;28;20459;-76
2022/08/05 12:52:12;;;;;;;2.88;2.67;;;;;;;;;;5007371;28;20033;-75
2022/08/05 12:54:38;;;;;;;;;;;;;;;;;;5001479;28;20696;-74
2022/08/05 12:57:05;;;;;;;3.38;2.97;;;;;;;;;;5005764;28;19909;-73
2022/08/05 12:59:32;;;;;;;4.30;4.00;;;;;;;;;;5004446;28;20040;-73
2022/08/05 13:02:08;;;;;;;4.53;4.13;;;;;;;;;;5003479;28;20486;-73
2022/08/05 13:04:36;;;;;;;10.02;3.80;;;;;;;;;;5004231;28;20022;-73
2022/08/05 13:07:13;;;;;;;6.43;4.18;;;;;;;;;;5003433;28;20507;-73
2022/08/05 13:09:40;;;;;;;7.15;4.15;;;;;;;;;;5005374;28;20105;-73
2022/08/05 13:12:07;;;;;;;10.63;4.20;;;;;;;;;;5005606;28;20026;-73
2022/08/05 13:14:36;;;;;;;4.20;3.90;;;;;;;;;;5003957;28;20052;-73
2022/08/05 13:17:07;;;;;;;7.25;4.10;;;;;;;;;;5004992;28;20659;-74
2022/08/05 13:19:33;;;;;;;4.15;3.65;;;;;;;;;;5008435;28;20048;-74
2022/08/05 13:22:00;;;;;;;3.03;2.78;;;;;;;;;;5006082;28;20025;-73
2022/08/05 13:24:26;;;;;;;5.50;3.10;;;;;;;;;;5005370;28;20547;-73
2022/08/05 13:26:52;;;;;;;4.50;3.60;;;;;;;;;;5002120;28;20099;-74
2022/08/05 13:29:21;;;;;;;3.88;3.47;;;;;;;;;;5002442;28;20057;-74
2022/08/05 13:31:47;;;;;;;4.82;3.72;;;;;;;;;;5003372;28;20056;-73
2022/08/05 13:34:16;;;;;;;4.53;4.10;;;;;;;;;;5002602;28;20134;-73
2022/08/05 13:36:42;;;;;;;4.00;3.70;;;;;;;;;;4989651;28;20871;-73
2022/08/05 13:39:09;;;;;;;5.70;3.85;;;;;;;;;;4995226;28;20069;-73
2022/08/05 13:41:35;;;;;;;4.05;3.65;;;;;;;;;;5000072;28;20328;-73
2022/08/05 13:44:02;;;;;;;3.90;3.50;;;;;;;;;;4995541;28;20101;-73
2022/08/05 13:46:29;;;;;;;3.28;3.05;;;;;;;;;;4996997;28;20038;-73
2022/08/05 13:48:56;;;;;;;3.83;3.53;;;;;;;;;;4998355;28;20109;-72
2022/08/05 13:51:29;;;;;;;3.88;3.58;;;;;;;;;;4999072;28;20022;-73
2022/08/05 13:53:56;;;;;;;3.10;2.80;;;;;;;;;;4999546;28;20053;-73
2022/08/05 13:56:22;;;;;;;3.50;3.20;;;;;;;;;;4999606;28;20781;-73
2022/08/05 13:58:48;;;;;;;4.45;3.40;;;;;;;;;;4997110;28;20028;-72
2022/08/05 14:01:14;;;;;;;3.70;3.40;;;;;;;;;;4998887;28;20044;-73
2022/08/05 14:03:40;;;;;;;3.70;3.33;;;;;;;;;;5006972;28;20421;-73
2022/08/05 14:06:07;;;;;;;4.20;3.53;;;;;;;;;;5003390;28;20030;-73
2022/08/05 14:08:33;;;;;;;4.63;3.47;;;;;;;;;;5002824;28;20410;-72
2022/08/05 14:10:59;;;;;;;3.78;3.20;;;;;;;;;;5003196;28;20030;-72
2022/08/05 14:13:26;;;;;;;4.25;3.35;;;;;;;;;;5005891;28;20688;-72
2022/08/05 14:15:52;;;;;;;5.03;3.60;;;;;;;;;;5002070;28;20032;-72
2022/08/05 14:18:18;;;;;;;5.03;3.70;;;;;;;;;;5006636;28;20028;-73
2022/08/05 14:20:44;;;;;;;4.65;3.85;;;;;;;;;;5001240;28;20042;-73
2022/08/05 14:23:11;;;;;;;3.80;3.50;;;;;;;;;;5004437;28;20413;-73
2022/08/05 14:25:37;;;;;;;3.67;3.35;;;;;;;;;;5008370;28;20394;-73
2022/08/05 14:28:03;;;;;;;3.90;3.20;;;;;;;;;;5003286;28;20429;-72
2022/08/05 14:30:29;;;;;;;4.00;3.70;;;;;;;;;;5005090;28;20116;-72
2022/08/05 14:32:55;;;;;;;3.00;2.72;;;;;;;;;;5001663;28;20109;-72
2022/08/05 14:35:22;;;;;;;4.55;2.90;;;;;;;;;;5004032;28;20113;-72
2022/08/05 14:37:48;;;;;;;3.20;3.00;;;;;;;;;;5003749;28;20730;-72
2022/08/05 14:40:14;;;;;;;2.95;2.67;;;;;;;;;;5004086;28;20727;-73
2022/08/05 14:42:40;;;;;;;4.28;3.25;;;;;;;;;;5004588;28;20253;-72
2022/08/05 14:45:07;;;;;;;3.20;2.90;;;;;;;;;;5001790;28;20538;-72
2022/08/05 14:47:33;;;;;;;3.88;3.38;;;;;;;;;;5005788;28;20021;-73
2022/08/05 14:49:59;;;;;;;2.95;2.70;;;;;;;;;;4998570;28;20625;-73